Champion, Ohio
Current Conditions -  °F | °C
As of 11:27 AM on Thursday 29 Jan 2015 (Local Time) from KYNG Reporting Station
Freezing Rain Freezing Rain  
Wind Chill: 22°   Ceiling: 4500
Heat Index: 31°   Visibility: 6mi
Dew Point: 21°   Wind: 12mph
Humidity: 67%   Direction: 170°S
Pressure: 29.85"   Gusts: NA
Location:  41.2735°N, 80.8217°W
Report Text: KYNG 291627Z 17010KT 6SM -FZRAPL SCT022 OVC045 M01/M06 A2985 RMK AO2 PLB25 P0001 I1001 T10061061
Loading
Personal Weather Stations






























Interactive Weather Map New forecast layout! Learn more

10-Day Weather Forecast

Advertisements
Track Severe Weather on mobile